Time;durP1;ratioP1;P1;durP2;ratioP2;P2;SDS_P1;SDS_P2;PMS_P1;PMS_P2;Temp;Humidity;BMP_temperature;BMP_pressure;BME280_temperature;BME280_humidity;BME280_pressure;Samples;Min_cycle;Max_cycle;Signal;HPM_P1;HPM_P2
2023/03/04 00:01:15;;;;;;;16.80;2.72;;;5.60;99.90;;;;;;5027012;28;20073;-57
2023/03/04 00:03:40;;;;;;;14.93;2.65;;;5.40;99.90;;;;;;5027027;28;20049;-60
2023/03/04 00:06:06;;;;;;;19.88;2.75;;;5.50;99.90;;;;;;5027120;28;20044;-60
2023/03/04 00:08:32;;;;;;;17.42;2.45;;;5.50;99.90;;;;;;5027515;28;20095;-60
2023/03/04 00:10:58;;;;;;;14.55;2.70;;;5.50;99.90;;;;;;5027287;28;20049;-58
2023/03/04 00:13:23;;;;;;;12.63;2.08;;;5.70;99.90;;;;;;5025138;28;20057;-59
2023/03/04 00:15:49;;;;;;;16.30;2.50;;;5.60;99.90;;;;;;5025909;28;20057;-60
2023/03/04 00:18:15;;;;;;;10.70;1.80;;;5.50;99.90;;;;;;5026625;28;20049;-58
2023/03/04 00:20:41;;;;;;;14.30;1.98;;;5.60;99.90;;;;;;5025992;28;20041;-60
2023/03/04 00:23:07;;;;;;;11.35;2.10;;;5.50;99.90;;;;;;5026487;28;20133;-60
2023/03/04 00:25:32;;;;;;;17.60;2.70;;;5.60;99.90;;;;;;5009020;28;20083;-60
2023/03/04 00:27:58;;;;;;;11.73;1.88;;;5.70;99.90;;;;;;5026363;28;20037;-60
2023/03/04 00:30:25;;;;;;;9.85;1.88;;;5.60;99.90;;;;;;5026662;28;20042;-60
2023/03/04 00:32:51;;;;;;;14.60;2.28;;;5.70;99.90;;;;;;5026643;28;20171;-58
2023/03/04 00:35:16;;;;;;;15.80;2.70;;;5.70;99.90;;;;;;5027347;28;20145;-60
2023/03/04 00:37:42;;;;;;;12.70;2.20;;;5.60;99.90;;;;;;5027348;28;20072;-59
2023/03/04 00:40:09;;;;;;;16.00;3.08;;;5.60;99.90;;;;;;5026601;28;20191;-58
2023/03/04 00:42:34;;;;;;;15.32;2.90;;;5.70;99.90;;;;;;5027005;28;20427;-59
2023/03/04 00:45:00;;;;;;;11.43;2.20;;;5.40;99.90;;;;;;5028594;28;20044;-58
2023/03/04 00:47:26;;;;;;;10.00;1.92;;;5.60;99.90;;;;;;5035659;28;20518;-60
2023/03/04 00:49:51;;;;;;;13.82;2.13;;;5.50;99.90;;;;;;5008395;28;20441;-59
2023/03/04 00:52:17;;;;;;;10.82;1.98;;;5.70;99.90;;;;;;5008648;28;20480;-58
2023/03/04 00:54:42;;;;;;;14.70;2.40;;;5.40;99.90;;;;;;5026043;28;20416;-58
2023/03/04 00:57:08;;;;;;;13.48;2.40;;;5.60;99.90;;;;;;5026509;28;20128;-58
2023/03/04 00:59:34;;;;;;;11.77;2.53;;;5.70;99.90;;;;;;5026222;28;20506;-60
2023/03/04 01:01:59;;;;;;;14.80;2.28;;;5.40;99.90;;;;;;5026342;28;20051;-61
2023/03/04 01:04:25;;;;;;;19.85;2.88;;;5.40;99.90;;;;;;5025535;28;20033;-60
2023/03/04 01:06:51;;;;;;;12.85;2.40;;;5.30;99.90;;;;;;5025591;28;20065;-59
2023/03/04 01:09:16;;;;;;;12.85;2.65;;;5.60;99.90;;;;;;5025821;28;20053;-59
2023/03/04 01:11:42;;;;;;;16.92;2.88;;;5.50;99.90;;;;;;5026015;28;20042;-59
2023/03/04 01:14:07;;;;;;;14.73;2.30;;;5.60;99.90;;;;;;5024412;28;20472;-59
2023/03/04 01:16:33;;;;;;;18.65;2.85;;;5.30;99.90;;;;;;5025507;28;20587;-60
2023/03/04 01:18:59;;;;;;;16.33;2.17;;;5.60;99.90;;;;;;5025591;28;20508;-60
2023/03/04 01:21:25;;;;;;;11.40;2.28;;;5.50;99.90;;;;;;5025350;28;20041;-57
2023/03/04 01:23:50;;;;;;;18.75;2.55;;;5.30;99.90;;;;;;5024965;28;20073;-59
2023/03/04 01:26:16;;;;;;;12.15;2.40;;;5.40;99.90;;;;;;5026154;28;20033;-59
2023/03/04 01:28:42;;;;;;;15.48;2.53;;;5.40;99.90;;;;;;5024886;28;20033;-60
2023/03/04 01:31:07;;;;;;;13.35;2.50;;;5.40;99.90;;;;;;5025851;28;20037;-60
2023/03/04 01:33:33;;;;;;;16.10;2.47;;;5.50;99.90;;;;;;5025186;28;20038;-60
2023/03/04 01:35:59;;;;;;;15.23;2.40;;;5.30;99.90;;;;;;5025727;28;20080;-60
2023/03/04 01:38:25;;;;;;;16.70;2.90;;;5.30;99.90;;;;;;5025107;28;20060;-61
2023/03/04 01:40:51;;;;;;;15.68;3.17;;;5.60;99.90;;;;;;5025825;28;20135;-57
2023/03/04 01:43:23;;;;;;;18.23;3.17;;;5.40;99.90;;;;;;5024566;28;20133;-60
2023/03/04 01:45:50;;;;;;;15.30;3.35;;;5.60;99.90;;;;;;5033231;28;20051;-58
2023/03/04 01:48:20;;;;;;;14.20;2.97;;;5.30;99.90;;;;;;5028112;28;20046;-60
2023/03/04 01:50:46;;;;;;;11.48;2.70;;;5.50;99.90;;;;;;5025150;28;20130;-59
2023/03/04 01:53:22;;;;;;;14.23;3.20;;;5.30;99.90;;;;;;5024975;28;20556;-57
2023/03/04 01:55:49;;;;;;;14.35;2.42;;;5.40;99.90;;;;;;5026082;28;20423;-60
2023/03/04 01:58:14;;;;;;;16.40;2.70;;;5.40;99.90;;;;;;5024480;28;20446;-61
2023/03/04 02:00:40;;;;;;;11.15;2.30;;;5.30;99.90;;;;;;5006920;28;20052;-60
2023/03/04 02:03:13;;;;;;;19.33;3.28;;;5.50;99.90;;;;;;5024790;28;20046;-60
2023/03/04 02:05:42;;;;;;;18.42;2.50;;;5.50;99.90;;;;;;5024846;28;20561;-59
2023/03/04 02:08:11;;;;;;;11.23;2.88;;;5.20;99.90;;;;;;5024332;28;20041;-57
2023/03/04 02:10:37;;;;;;;13.43;2.38;;;5.50;99.90;;;;;;5024758;28;20046;-60
2023/03/04 02:13:03;;;;;;;14.40;2.45;;;5.50;99.90;;;;;;5023862;28;20409;-57
2023/03/04 02:15:29;;;;;;;17.65;2.78;;;5.30;99.90;;;;;;5024769;28;20061;-59
2023/03/04 02:17:55;;;;;;;13.68;2.40;;;5.50;99.90;;;;;;5023798;28;20057;-58
2023/03/04 02:20:44;;;;;;;14.02;2.75;;;5.10;99.90;;;;;;5025136;28;20048;-59
2023/03/04 02:23:45;;;;;;;15.07;2.35;;;5.30;99.90;;;;;;5024607;28;20042;-59
2023/03/04 02:26:26;;;;;;;16.25;3.08;;;5.10;99.90;;;;;;5024030;28;20629;-60
2023/03/04 02:28:53;;;;;;;15.25;2.88;;;5.40;99.90;;;;;;5023552;28;20239;-60
2023/03/04 02:31:23;;;;;;;17.35;3.17;;;5.20;99.90;;;;;;5024631;28;20033;-61
2023/03/04 02:33:50;;;;;;;20.05;2.92;;;5.30;99.90;;;;;;5007569;28;20514;-60
2023/03/04 02:36:16;;;;;;;11.38;2.35;;;5.40;99.90;;;;;;5024688;28;20045;-60
2023/03/04 02:38:42;;;;;;;22.50;3.05;;;5.40;99.90;;;;;;5006739;28;20060;-60
2023/03/04 02:41:12;;;;;;;17.52;2.78;;;5.20;99.90;;;;;;5024544;28;20044;-59
2023/03/04 02:43:38;;;;;;;14.45;2.28;;;5.20;99.90;;;;;;5023840;28;20037;-58
2023/03/04 02:46:04;;;;;;;15.93;2.35;;;5.40;99.90;;;;;;5034339;28;20099;-59
2023/03/04 02:48:30;;;;;;;16.23;2.63;;;5.40;99.90;;;;;;5026609;28;20491;-57
2023/03/04 02:50:56;;;;;;;16.58;2.83;;;5.00;99.90;;;;;;5027346;28;20077;-59
2023/03/04 02:53:24;;;;;;;12.40;2.35;;;5.30;99.90;;;;;;5011308;28;20100;-59
2023/03/04 02:55:49;;;;;;;19.00;3.13;;;5.40;99.90;;;;;;5028848;28;20060;-60
2023/03/04 02:58:15;;;;;;;13.57;2.22;;;5.20;99.90;;;;;;5027985;28;20128;-60
2023/03/04 03:00:41;;;;;;;19.15;2.53;;;5.20;99.90;;;;;;5028706;28;20365;-58
2023/03/04 03:03:07;;;;;;;13.43;2.63;;;5.40;99.90;;;;;;5028491;28;20057;-59
2023/03/04 03:05:33;;;;;;;13.05;2.42;;;5.30;99.90;;;;;;5028277;28;20049;-60
2023/03/04 03:07:59;;;;;;;15.25;2.00;;;5.40;99.90;;;;;;5028601;28;20112;-60
2023/03/04 03:10:25;;;;;;;12.10;2.33;;;5.10;99.90;;;;;;5010624;28;20133;-59
2023/03/04 03:12:51;;;;;;;11.07;2.13;;;5.20;99.90;;;;;;5028156;28;20052;-59
2023/03/04 03:15:17;;;;;;;14.10;2.45;;;5.30;99.90;;;;;;5027777;28;20079;-59
2023/03/04 03:17:43;;;;;;;13.73;2.10;;;5.50;99.90;;;;;;5027687;28;20123;-58
2023/03/04 03:20:11;;;;;;;13.30;2.33;;;5.00;99.90;;;;;;5028204;28;20042;-60
2023/03/04 03:22:37;;;;;;;11.50;2.15;;;5.00;99.90;;;;;;5038567;28;20711;-60
2023/03/04 03:25:03;;;;;;;10.60;1.80;;;5.10;99.90;;;;;;5047861;28;20086;-60
2023/03/04 03:27:29;;;;;;;12.27;1.95;;;5.00;99.90;;;;;;5047187;28;20045;-60
2023/03/04 03:29:54;;;;;;;13.60;1.83;;;5.30;99.90;;;;;;5048163;28;20083;-60
2023/03/04 03:32:20;;;;;;;12.35;2.08;;;5.30;99.90;;;;;;5030298;28;20040;-60
2023/03/04 03:34:46;;;;;;;8.55;2.00;;;5.40;99.90;;;;;;5048188;28;20037;-59
2023/03/04 03:37:12;;;;;;;12.07;2.20;;;5.20;99.90;;;;;;5047599;28;20487;-58
2023/03/04 03:39:38;;;;;;;11.32;2.10;;;5.40;99.90;;;;;;5047902;28;20045;-57
2023/03/04 03:42:03;;;;;;;17.10;2.67;;;5.00;99.90;;;;;;5047480;28;20613;-59
2023/03/04 03:44:29;;;;;;;10.27;1.85;;;4.90;99.90;;;;;;5044870;28;20782;-60
2023/03/04 03:46:55;;;;;;;16.52;2.97;;;5.10;99.90;;;;;;5038088;28;20049;-60
2023/03/04 03:49:21;;;;;;;12.55;2.10;;;5.70;99.90;;;;;;5010441;28;20057;-60
2023/03/04 03:51:46;;;;;;;11.00;2.58;;;5.50;99.90;;;;;;5027519;28;20598;-60
2023/03/04 03:54:12;;;;;;;11.43;2.20;;;5.30;99.90;;;;;;5027824;28;20037;-60
2023/03/04 03:56:37;;;;;;;12.20;2.10;;;5.20;99.90;;;;;;5027332;28;20751;-60
2023/03/04 03:59:03;;;;;;;14.68;2.67;;;5.30;99.90;;;;;;5025301;28;20804;-60
2023/03/04 04:01:29;;;;;;;11.50;2.30;;;5.20;99.90;;;;;;5026783;28;20120;-60
2023/03/04 04:03:54;;;;;;;15.45;2.72;;;5.30;99.90;;;;;;5027706;28;20121;-56
2023/03/04 04:06:20;;;;;;;16.40;2.78;;;5.70;99.90;;;;;;5026614;28;20504;-59
2023/03/04 04:08:46;;;;;;;12.40;2.00;;;5.00;99.90;;;;;;5027409;28;20603;-59
2023/03/04 04:11:12;;;;;;;12.10;2.28;;;5.30;99.90;;;;;;5027607;28;20049;-59
2023/03/04 04:13:38;;;;;;;16.90;3.38;;;5.20;99.90;;;;;;5026117;28;20120;-56
2023/03/04 04:16:04;;;;;;;14.05;2.13;;;5.30;99.90;;;;;;5026215;28;20200;-60
2023/03/04 04:18:30;;;;;;;13.52;2.42;;;5.40;99.90;;;;;;5027249;28;20433;-59
2023/03/04 04:20:56;;;;;;;11.05;2.45;;;5.10;99.90;;;;;;5027216;28;20203;-58
2023/03/04 04:23:22;;;;;;;13.80;2.22;;;5.40;99.90;;;;;;5008969;28;20473;-60
2023/03/04 04:25:47;;;;;;;12.00;2.40;;;4.80;99.90;;;;;;5027155;28;20576;-60
2023/03/04 04:28:13;;;;;;;13.77;2.42;;;5.10;99.90;;;;;;5026605;28;20037;-59
2023/03/04 04:30:39;;;;;;;9.73;1.98;;;5.10;99.90;;;;;;5027491;28;20045;-60
2023/03/04 04:33:05;;;;;;;14.00;2.38;;;4.90;99.90;;;;;;5009339;28;20237;-59
2023/03/04 04:35:33;;;;;;;14.18;1.90;;;4.90;99.90;;;;;;5026386;28;20104;-56
2023/03/04 04:37:59;;;;;;;13.13;2.10;;;5.10;99.90;;;;;;5027584;28;20053;-60
2023/03/04 04:40:24;;;;;;;11.65;1.90;;;5.50;99.90;;;;;;5027074;28;20041;-61
2023/03/04 04:42:50;;;;;;;14.38;2.30;;;5.10;99.90;;;;;;5026120;28;20075;-59
2023/03/04 04:45:16;;;;;;;8.50;1.90;;;4.90;99.90;;;;;;5029600;28;20033;-60
2023/03/04 04:47:41;;;;;;;11.82;1.80;;;4.90;99.90;;;;;;5016657;28;20183;-60
2023/03/04 04:50:08;;;;;;;11.68;2.22;;;5.50;99.90;;;;;;5027012;28;20042;-59
2023/03/04 04:52:33;;;;;;;18.30;2.35;;;5.50;99.90;;;;;;5026437;28;20045;-60
2023/03/04 04:54:59;;;;;;;11.55;1.90;;;5.10;99.90;;;;;;5026288;28;20060;-57
2023/03/04 04:57:24;;;;;;;9.55;1.75;;;4.90;99.90;;;;;;5025804;28;20148;-59
2023/03/04 04:59:50;;;;;;;11.00;2.00;;;4.90;99.90;;;;;;5026003;28;20049;-56
2023/03/04 05:02:16;;;;;;;11.43;2.22;;;5.20;99.90;;;;;;5025914;28;20041;-59
2023/03/04 05:04:41;;;;;;;12.00;1.98;;;4.80;99.90;;;;;;5025421;28;20465;-60
2023/03/04 05:07:07;;;;;;;15.10;2.35;;;4.70;99.90;;;;;;5025686;28;20667;-60
2023/03/04 05:09:33;;;;;;;10.70;1.80;;;5.50;99.90;;;;;;5025793;28;20041;-61
2023/03/04 05:11:58;;;;;;;11.35;2.25;;;4.50;99.90;;;;;;5025376;28;20029;-60
2023/03/04 05:14:24;;;;;;;9.43;1.85;;;4.50;99.90;;;;;;5025406;28;20681;-60
2023/03/04 05:16:51;;;;;;;8.77;2.22;;;5.50;99.90;;;;;;5025533;28;20076;-58
2023/03/04 05:19:18;;;;;;;16.20;2.47;;;4.40;99.90;;;;;;5025566;28;20095;-58
2023/03/04 05:21:43;;;;;;;12.35;2.22;;;5.40;99.90;;;;;;5025890;28;20053;-60
2023/03/04 05:24:09;;;;;;;12.30;2.00;;;5.50;99.90;;;;;;5025723;28;20087;-59
2023/03/04 05:26:35;;;;;;;10.02;2.03;;;5.30;99.90;;;;;;5025428;28;20049;-60
2023/03/04 05:29:01;;;;;;;10.77;2.03;;;4.70;99.90;;;;;;5007666;28;20046;-60
2023/03/04 05:31:26;;;;;;;11.30;2.25;;;5.50;99.90;;;;;;5025475;28;20052;-57
2023/03/04 05:33:52;;;;;;;10.00;2.75;;;4.60;99.90;;;;;;5025171;28;20384;-58
2023/03/04 05:36:17;;;;;;;13.68;2.20;;;4.70;99.90;;;;;;5007390;28;20042;-61
2023/03/04 05:38:43;;;;;;;9.35;1.95;;;5.30;99.90;;;;;;5025723;28;20052;-60
2023/03/04 05:41:09;;;;;;;14.48;2.67;;;4.40;99.90;;;;;;5025682;28;20052;-60
2023/03/04 05:43:35;;;;;;;12.50;2.35;;;5.90;99.90;;;;;;5006769;28;20088;-59
2023/03/04 05:46:03;;;;;;;14.48;2.40;;;4.70;99.90;;;;;;5034077;28;20110;-61
2023/03/04 05:48:29;;;;;;;12.10;2.30;;;4.50;99.90;;;;;;5008727;28;20053;-61
2023/03/04 05:50:56;;;;;;;17.88;2.85;;;4.60;99.90;;;;;;5025416;28;20045;-60
2023/03/04 05:53:22;;;;;;;13.18;2.60;;;5.10;99.90;;;;;;5025061;28;20037;-57
2023/03/04 05:55:48;;;;;;;12.75;2.58;;;5.30;99.90;;;;;;5006799;28;20060;-60
2023/03/04 05:58:15;;;;;;;12.52;2.40;;;5.50;99.90;;;;;;5024117;28;20037;-59
2023/03/04 06:00:41;;;;;;;13.30;2.13;;;5.40;99.90;;;;;;5024025;28;20042;-60
2023/03/04 06:03:11;;;;;;;14.38;2.78;;;4.60;99.90;;;;;;5023960;28;20056;-61
2023/03/04 06:05:37;;;;;;;10.23;2.70;;;5.50;99.90;;;;;;5025146;28;20038;-58
2023/03/04 06:08:02;;;;;;;12.85;2.40;;;4.50;99.90;;;;;;5025518;28;20619;-61
2023/03/04 06:10:28;;;;;;;12.40;1.90;;;4.40;99.90;;;;;;5025130;28;20227;-60
2023/03/04 06:12:53;;;;;;;10.32;1.88;;;5.70;99.90;;;;;;5023960;28;20041;-57
2023/03/04 06:15:19;;;;;;;13.55;2.30;;;4.70;99.90;;;;;;5024618;28;20371;-60
2023/03/04 06:17:45;;;;;;;10.10;1.83;;;6.00;99.90;;;;;;5024852;28;20071;-61
2023/03/04 06:20:12;;;;;;;17.77;2.22;;;5.70;99.90;;;;;;5024838;28;20087;-61
2023/03/04 06:22:38;;;;;;;19.90;3.10;;;4.90;99.90;;;;;;5024633;28;20361;-56
2023/03/04 06:25:05;;;;;;;17.33;2.42;;;4.40;99.90;;;;;;5024611;28;20041;-60
2023/03/04 06:27:30;;;;;;;10.30;1.80;;;4.50;99.90;;;;;;5024192;28;20041;-60
2023/03/04 06:29:56;;;;;;;8.60;2.45;;;5.70;99.90;;;;;;5023722;28;20049;-59
2023/03/04 06:32:22;;;;;;;9.57;2.00;;;5.20;99.90;;;;;;5025047;28;20055;-55
2023/03/04 06:34:48;;;;;;;8.90;1.80;;;4.70;99.90;;;;;;5024311;28;20045;-58
2023/03/04 06:37:13;;;;;;;13.90;2.70;;;6.00;99.90;;;;;;5024716;28;20037;-58
2023/03/04 06:39:39;;;;;;;13.05;2.40;;;4.50;99.90;;;;;;5024579;28;20053;-58
2023/03/04 06:42:05;;;;;;;12.27;2.72;;;5.00;99.90;;;;;;5024070;28;20543;-61
2023/03/04 06:44:30;;;;;;;9.82;1.95;;;5.60;99.90;;;;;;5025204;28;20531;-60
2023/03/04 06:46:56;;;;;;;8.88;2.08;;;4.90;99.90;;;;;;5016144;28;20374;-60
2023/03/04 06:49:22;;;;;;;7.68;1.90;;;5.10;99.90;;;;;;5024292;28;20540;-61
2023/03/04 06:51:48;;;;;;;13.88;2.05;;;5.70;99.90;;;;;;5024660;28;20120;-60
2023/03/04 06:54:14;;;;;;;13.20;2.53;;;4.80;99.90;;;;;;5023929;28;20508;-61
2023/03/04 06:56:39;;;;;;;12.77;1.98;;;4.60;99.90;;;;;;5022891;28;20477;-59
2023/03/04 06:59:05;;;;;;;15.68;2.33;;;5.50;99.90;;;;;;5024042;28;20103;-60
2023/03/04 07:01:31;;;;;;;12.00;2.72;;;5.20;99.90;;;;;;5024702;28;20116;-58
2023/03/04 07:03:57;;;;;;;13.40;2.17;;;5.60;99.90;;;;;;5006054;28;20049;-57
2023/03/04 07:06:25;;;;;;;10.55;2.40;;;4.60;99.90;;;;;;5006725;28;20060;-57
2023/03/04 07:08:51;;;;;;;12.38;2.45;;;6.40;99.90;;;;;;5024243;28;20157;-60
2023/03/04 07:11:17;;;;;;;15.00;2.33;;;5.20;99.90;;;;;;5024252;28;20123;-58
2023/03/04 07:13:43;;;;;;;13.25;2.58;;;6.20;99.90;;;;;;5023255;28;20045;-59
2023/03/04 07:16:13;;;;;;;20.63;2.88;;;4.60;99.90;;;;;;5024609;28;20065;-55
2023/03/04 07:18:39;;;;;;;15.32;2.42;;;4.90;99.90;;;;;;5029043;28;20124;-60
2023/03/04 07:21:05;;;;;;;14.95;2.97;;;4.60;99.90;;;;;;5044156;28;20143;-57
2023/03/04 07:23:31;;;;;;;17.38;2.97;;;5.90;99.90;;;;;;5043722;28;20067;-61
2023/03/04 07:25:57;;;;;;;13.23;2.30;;;4.80;99.90;;;;;;5044033;28;20433;-57
2023/03/04 07:28:23;;;;;;;11.52;2.42;;;5.50;99.90;;;;;;5043264;28;20041;-58
2023/03/04 07:30:48;;;;;;;19.58;2.95;;;5.00;99.90;;;;;;5044508;28;20152;-57
2023/03/04 07:33:14;;;;;;;13.85;2.88;;;4.90;99.90;;;;;;5043261;28;20372;-60
2023/03/04 07:35:40;;;;;;;19.50;3.53;;;4.80;99.90;;;;;;5027503;28;20056;-60
2023/03/04 07:38:06;;;;;;;18.52;2.67;;;6.30;99.90;;;;;;5030376;28;20041;-60
2023/03/04 07:40:32;;;;;;;16.85;3.00;;;5.90;99.90;;;;;;5047434;28;20176;-61
2023/03/04 07:42:58;;;;;;;18.40;3.30;;;5.90;99.90;;;;;;5046073;28;20033;-61
2023/03/04 07:45:24;;;;;;;20.73;2.97;;;5.90;99.90;;;;;;5041092;28;20038;-61
2023/03/04 07:47:50;;;;;;;17.90;3.42;;;5.90;99.90;;;;;;5034267;28;20052;-61
2023/03/04 07:50:16;;;;;;;20.48;3.42;;;5.60;99.90;;;;;;5027257;28;20030;-61
2023/03/04 07:52:45;;;;;;;14.23;2.80;;;5.60;99.90;;;;;;5008916;28;20060;-59
2023/03/04 07:55:13;;;;;;;22.30;3.08;;;5.50;99.90;;;;;;5028216;28;20041;-55
2023/03/04 07:57:39;;;;;;;15.55;2.63;;;5.90;99.90;;;;;;5027083;28;20041;-57
2023/03/04 08:00:06;;;;;;;17.80;3.35;;;5.30;99.90;;;;;;5027677;28;20041;-60
2023/03/04 08:02:31;;;;;;;22.70;3.63;;;5.90;99.90;;;;;;5027022;28;20041;-60
2023/03/04 08:04:57;;;;;;;20.00;3.70;;;5.30;99.90;;;;;;4993164;28;20049;-61
2023/03/04 08:07:23;;;;;;;20.42;3.55;;;5.40;99.90;;;;;;5027132;28;20051;-53
2023/03/04 08:09:48;;;;;;;19.08;2.88;;;5.50;99.90;;;;;;5026641;28;20136;-61
2023/03/04 08:12:14;;;;;;;22.15;3.45;;;6.00;99.90;;;;;;5025833;28;20060;-60
2023/03/04 08:14:40;;;;;;;20.27;3.88;;;5.70;99.90;;;;;;5027694;28;20625;-59
2023/03/04 08:17:06;;;;;;;19.65;2.85;;;5.50;99.90;;;;;;5027379;28;20226;-61
2023/03/04 08:19:31;;;;;;;17.52;3.20;;;6.00;99.90;;;;;;5027674;28;20639;-61
2023/03/04 08:21:57;;;;;;;14.68;2.60;;;5.60;99.90;;;;;;5026824;28;20053;-61
2023/03/04 08:24:23;;;;;;;13.98;2.92;;;6.00;99.90;;;;;;5027166;28;20484;-61
2023/03/04 08:26:49;;;;;;;15.60;2.63;;;6.10;99.90;;;;;;5026136;28;20044;-58
2023/03/04 08:29:21;;;;;;;13.13;2.55;;;5.90;99.90;;;;;;5027090;28;20302;-59
2023/03/04 08:31:48;;;;;;;14.15;2.70;;;6.10;99.90;;;;;;5026386;28;20396;-59
2023/03/04 08:34:15;;;;;;;14.88;2.88;;;6.00;99.90;;;;;;5026711;28;20227;-59
2023/03/04 08:36:44;;;;;;;12.57;2.63;;;6.20;99.90;;;;;;5027022;28;20038;-60
2023/03/04 08:39:14;;;;;;;14.43;2.90;;;6.00;99.90;;;;;;5026258;28;20548;-57
2023/03/04 08:41:40;;;;;;;15.55;3.25;;;6.00;99.90;;;;;;5026420;28;20057;-61
2023/03/04 08:44:09;;;;;;;21.85;2.90;;;6.00;99.90;;;;;;5008484;28;20041;-57
2023/03/04 08:46:35;;;;;;;19.38;3.08;;;5.90;99.90;;;;;;5036970;28;20057;-59
2023/03/04 08:49:01;;;;;;;17.88;3.50;;;5.80;99.90;;;;;;5024860;28;20045;-55
2023/03/04 08:51:26;;;;;;;19.92;3.50;;;5.60;99.90;;;;;;5026258;28;20763;-58
2023/03/04 08:53:52;;;;;;;19.15;3.65;;;5.70;99.90;;;;;;5008794;28;20129;-60
2023/03/04 08:56:18;;;;;;;19.25;3.65;;;6.00;99.90;;;;;;5026403;28;20081;-61
2023/03/04 08:58:43;;;;;;;23.13;4.15;;;5.70;99.90;;;;;;5025309;28;20046;-60
2023/03/04 09:01:12;;;;;;;20.38;3.40;;;5.70;99.90;;;;;;5026397;28;20056;-60
2023/03/04 09:03:37;;;;;;;19.67;3.78;;;5.60;99.90;;;;;;5026078;28;20416;-59
2023/03/04 09:06:04;;;;;;;25.60;4.00;;;5.70;99.90;;;;;;4991923;28;20045;-60
2023/03/04 09:08:30;;;;;;;16.55;3.42;;;6.00;99.90;;;;;;5025476;28;20041;-55
2023/03/04 09:10:56;;;;;;;24.65;3.80;;;6.00;99.90;;;;;;5025911;28;20081;-61
2023/03/04 09:13:24;;;;;;;23.80;3.90;;;6.10;99.90;;;;;;5025180;28;20045;-58
2023/03/04 09:15:51;;;;;;;27.27;4.30;;;5.90;99.90;;;;;;5026014;28;20385;-54
2023/03/04 09:18:19;;;;;;;23.17;3.75;;;5.70;99.90;;;;;;5025313;28;20050;-58
2023/03/04 09:20:45;;;;;;;21.70;3.83;;;5.70;99.90;;;;;;5025693;28;20448;-61
2023/03/04 09:23:12;;;;;;;24.30;3.92;;;5.80;99.90;;;;;;5025416;28;20618;-61
2023/03/04 09:25:38;;;;;;;22.63;3.63;;;6.20;99.90;;;;;;5025762;28;20080;-61
2023/03/04 09:28:05;;;;;;;19.63;3.88;;;6.10;99.90;;;;;;5024383;28;20045;-61
2023/03/04 09:30:30;;;;;;;21.25;3.65;;;6.00;99.90;;;;;;5025636;28;20049;-61
2023/03/04 09:32:56;;;;;;;20.40;4.00;;;6.20;99.90;;;;;;5025873;28;20159;-61
2023/03/04 09:35:22;;;;;;;20.85;3.40;;;6.30;99.90;;;;;;5025585;28;20045;-61
2023/03/04 09:37:49;;;;;;;13.38;2.60;;;5.70;99.90;;;;;;5025301;28;20048;-56
2023/03/04 09:40:22;;;;;;;15.18;2.67;;;6.10;99.90;;;;;;5025816;28;20472;-58
2023/03/04 09:42:54;;;;;;;9.45;1.50;;;5.80;99.90;;;;;;5021037;28;20061;-58
2023/03/04 09:45:25;;;;;;;7.00;1.20;;;5.60;99.90;;;;;;5040139;28;20033;-60
2023/03/04 09:47:53;;;;;;;9.07;1.60;;;5.60;99.90;;;;;;5051082;28;20052;-60
2023/03/04 09:50:20;;;;;;;6.60;1.35;;;5.80;99.90;;;;;;5048239;28;20127;-60
2023/03/04 09:52:49;;;;;;;10.07;1.90;;;5.50;99.90;;;;;;5037307;28;20474;-61
2023/03/04 09:55:31;;;;;;;11.55;1.95;;;6.00;99.90;;;;;;5052821;28;20032;-60
2023/03/04 09:58:01;;;;;;;10.85;2.10;;;6.20;99.90;;;;;;5042934;28;20064;-60
2023/03/04 10:00:30;;;;;;;9.88;2.00;;;6.70;99.90;;;;;;5048071;28;20047;-60
2023/03/04 10:03:08;;;;;;;10.93;1.88;;;6.60;99.90;;;;;;5048940;28;20160;-61
2023/03/04 10:05:44;;;;;;;11.10;1.95;;;6.80;99.90;;;;;;5053855;28;20120;-61
2023/03/04 10:08:34;;;;;;;9.27;1.50;;;7.10;99.90;;;;;;5049042;28;20051;-57
2023/03/04 10:11:02;;;;;;;17.13;2.70;;;7.60;99.90;;;;;;5050237;28;20445;-60
2023/03/04 10:13:45;;;;;;;11.30;2.20;;;7.20;99.90;;;;;;5047822;28;20049;-55
2023/03/04 10:16:16;;;;;;;15.27;3.15;;;7.20;99.90;;;;;;5042622;28;20494;-61
2023/03/04 10:18:49;;;;;;;16.30;3.50;;;6.80;99.90;;;;;;5050246;28;20047;-61
2023/03/04 10:21:23;;;;;;;15.43;3.00;;;6.70;99.90;;;;;;5062200;28;20044;-61
2023/03/04 10:23:49;;;;;;;23.70;3.20;;;6.50;99.90;;;;;;5063155;28;20117;-57
2023/03/04 10:26:19;;;;;;;20.73;3.28;;;6.20;99.90;;;;;;5044840;28;20040;-59
2023/03/04 10:28:46;;;;;;;13.20;3.20;;;6.20;99.90;;;;;;5063223;28;20061;-58
2023/03/04 10:31:35;;;;;;;18.63;2.70;;;6.30;99.90;;;;;;5044231;28;20041;-59
2023/03/04 10:34:03;;;;;;;20.10;3.28;;;6.20;99.90;;;;;;5048856;28;20056;-60
2023/03/04 10:36:28;;;;;;;13.77;2.65;;;6.30;99.90;;;;;;5061592;28;20032;-60
2023/03/04 10:39:03;;;;;;;12.07;2.78;;;6.40;99.90;;;;;;5062501;28;20418;-58
2023/03/04 10:41:31;;;;;;;12.30;2.92;;;6.30;99.90;;;;;;5061988;28;20053;-58
2023/03/04 10:44:17;;;;;;;15.05;3.13;;;6.40;99.90;;;;;;5061794;28;20052;-60
2023/03/04 10:46:47;;;;;;;10.25;2.65;;;6.50;99.90;;;;;;5033719;28;20045;-61
2023/03/04 10:49:15;;;;;;;12.85;2.13;;;6.50;99.90;;;;;;5033815;28;20510;-62
2023/03/04 10:51:45;;;;;;;12.02;2.75;;;7.30;99.90;;;;;;5042244;28;20052;-63
2023/03/04 10:54:47;;;;;;;14.55;3.45;;;6.90;99.90;;;;;;5024535;28;20049;-60
2023/03/04 10:57:17;;;;;;;10.55;2.28;;;6.80;99.90;;;;;;5009002;28;20395;-63
2023/03/04 10:59:49;;;;;;;15.68;3.28;;;6.60;99.90;;;;;;5042919;28;20096;-61
2023/03/04 11:02:35;;;;;;;16.95;3.08;;;6.60;99.90;;;;;;5042643;28;20055;-63
2023/03/04 11:05:23;;;;;;;17.92;3.25;;;6.50;99.90;;;;;;5042523;28;20061;-63
2023/03/04 11:07:52;;;;;;;16.38;3.30;;;6.40;99.90;;;;;;5024857;28;20061;-63
2023/03/04 11:10:42;;;;;;;15.10;2.78;;;6.40;99.90;;;;;;5043820;28;20364;-63
2023/03/04 11:13:14;;;;;;;13.90;2.90;;;6.20;99.90;;;;;;5046251;28;20080;-63
2023/03/04 11:15:51;;;;;;;13.82;3.03;;;6.30;99.90;;;;;;5047060;28;20037;-61
2023/03/04 11:18:23;;;;;;;14.70;2.67;;;6.40;99.90;;;;;;5047574;28;20045;-63
2023/03/04 11:20:49;;;;;;;14.73;2.53;;;6.40;99.90;;;;;;5048192;28;20036;-62
2023/03/04 11:23:38;;;;;;;14.07;2.80;;;6.30;99.90;;;;;;5046800;28;20052;-61
2023/03/04 11:26:11;;;;;;;13.05;2.47;;;6.80;99.90;;;;;;5028898;28;20047;-63
2023/03/04 11:28:55;;;;;;;15.48;2.88;;;7.30;99.90;;;;;;5046995;28;20049;-61
2023/03/04 11:31:33;;;;;;;13.40;2.45;;;7.40;99.90;;;;;;5047239;28;20430;-60
2023/03/04 11:34:12;;;;;;;14.38;3.15;;;7.30;99.90;;;;;;5046828;28;20053;-61
2023/03/04 11:36:57;;;;;;;13.50;2.53;;;6.90;99.90;;;;;;5046875;28;20128;-64
2023/03/04 11:39:39;;;;;;;14.02;3.03;;;6.80;99.90;;;;;;5046446;28;20029;-64
2023/03/04 11:42:46;;;;;;;11.32;2.72;;;6.70;99.90;;;;;;5045874;28;20037;-64
2023/03/04 11:45:18;;;;;;;13.93;2.67;;;6.70;99.90;;;;;;5011923;28;20691;-62
2023/03/04 11:47:56;;;;;;;14.60;2.78;;;7.80;99.90;;;;;;5034479;28;20053;-61
2023/03/04 11:50:44;;;;;;;18.45;2.95;;;7.80;99.90;;;;;;5026210;28;20073;-60
2023/03/04 11:53:35;;;;;;;14.90;2.90;;;7.40;99.90;;;;;;5009310;28;20049;-60
2023/03/04 11:56:01;;;;;;;11.98;2.40;;;7.30;99.90;;;;;;5008267;28;20060;-59
2023/03/04 11:58:59;;;;;;;7.32;1.50;;;7.20;99.90;;;;;;5026482;28;20042;-61
2023/03/04 12:01:35;;;;;;;9.82;2.10;;;7.30;99.90;;;;;;5025540;28;20062;-60
2023/03/04 12:04:43;;;;;;;14.85;2.50;;;7.60;99.90;;;;;;5026956;28;20041;-61
2023/03/04 12:07:50;;;;;;;12.60;2.75;;;8.10;99.90;;;;;;4987947;28;20467;-61
2023/03/04 12:10:25;;;;;;;13.30;3.08;;;8.20;99.90;;;;;;5025797;28;20045;-60
2023/03/04 12:13:16;;;;;;;16.25;3.28;;;8.20;99.90;;;;;;5025957;28;20052;-61
2023/03/04 12:16:02;;;;;;;17.73;3.55;;;8.30;99.90;;;;;;5026501;28;20057;-58
2023/03/04 12:19:01;;;;;;;14.45;4.03;;;8.10;99.90;;;;;;5026695;28;20088;-57
2023/03/04 12:22:01;;;;;;;15.25;2.90;;;8.20;99.90;;;;;;5008122;28;20112;-60
2023/03/04 12:24:44;;;;;;;14.65;2.90;;;8.10;99.90;;;;;;5026102;28;20045;-60
2023/03/04 12:27:47;;;;;;;15.48;3.70;;;7.80;99.90;;;;;;5008535;28;20053;-61
2023/03/04 12:30:31;;;;;;;13.13;2.42;;;7.70;99.90;;;;;;5026643;28;20091;-61
2023/03/04 12:33:17;;;;;;;12.13;2.25;;;7.50;99.90;;;;;;5008116;28;20499;-60
2023/03/04 12:35:42;;;;;;;;;;;7.80;99.90;;;;;;5026629;28;20081;-61
2023/03/04 12:38:14;;;;;;;8.60;1.88;;;7.30;99.90;;;;;;5025547;28;19975;-62
2023/03/04 12:40:53;;;;;;;10.18;2.10;;;7.10;99.90;;;;;;5025919;28;20081;-60
2023/03/04 12:43:35;;;;;;;8.27;2.17;;;7.00;99.90;;;;;;5025748;28;20060;-60
2023/03/04 12:46:25;;;;;;;12.85;2.70;;;7.10;99.90;;;;;;5034969;28;20091;-60
2023/03/04 12:48:59;;;;;;;12.23;2.67;;;7.00;99.90;;;;;;5026017;28;20500;-60
2023/03/04 12:51:40;;;;;;;15.15;2.83;;;7.20;99.90;;;;;;5025676;28;20042;-61
2023/03/04 12:54:27;;;;;;;14.90;3.25;;;7.40;99.90;;;;;;5025633;28;20057;-61
2023/03/04 12:57:08;;;;;;;11.07;3.05;;;7.60;99.90;;;;;;5025481;28;20045;-61
2023/03/04 12:59:40;;;;;;;14.57;2.63;;;7.80;99.90;;;;;;5025161;28;20053;-61